Airfield :
LOGIN :

Register | Disclaimer

   EN    FR    IT 

 










Legend :    VFR   Marginal VFR   IFR   Intensive IFR   Very Intensive IFR
Visi :
Ceiling :
>= 8 km
>= 3000ft
5 to 8 km
1000 to 3000 ft
1500m to 5 km
500 to 1000 ft
800 to 1500m
200 to 500 ft
< 800m
< 200 ft
Symbols :   Thunderstorms  Fog  Heavy snow  Heavy precipitations  Wind > 20 kt
SIGMETs :     Misc.  Thunderstorms  Icing  Turbulence  Mountain Waves  Volcanic Ashes






- Airport Elevation : 348 ft
- IATA code : STN


EGSS - London Stansted

CURRENT METAR :
  • 231750Z AUTO 27007KT 9999 FEW038 BKN046 15/09 Q1014

EXPIRED METARs :
  • 231720Z AUTO 27009KT 240V300 9999 BKN037 BKN044 16/09 Q1014
  • 231650Z AUTO 27008KT 230V310 9999 SCT038 BKN046 16/09 Q1014
  • 231620Z AUTO 27010KT 240V300 9999 SCT038 BKN045 16/09 Q1014
  • 231550Z AUTO 25010KT 9999 BKN038 17/09 Q1014
  • 231520Z AUTO 26010KT 230V300 9999 BKN036 16/09 Q1013
  • 231450Z AUTO 26009KT 230V310 9999 BKN035 16/09 Q1013
  • 231420Z AUTO 26011KT 210V290 9999 BKN034 16/09 Q1013
  • 231350Z AUTO 25011KT 9999 BKN030 17/10 Q1013
  • 231320Z AUTO 25011KT 9999 BKN028 BKN034 16/10 Q1013

TAF TAF EGSS
Valid from the 23 at 18:00 until the 25 at 00:00 UTC


231658Z 2318/2424 25008KT 9999 SCT035
PROB40
TEMPO 2403/2408 9000 BKN012
ATIS : +44 1279 669 325



MET'MAP, your aeronautical weather chart ! - Copyright ORBIFLY December 2007 - Disclaimer

ORBIFLY MET'MAP TEAM :

Programming & Development : Alexandra Zaïnal
Original concept : Baudouin d'Aumeries
Technical & hardware support : Manuel Goepfert
Assistance : Marc-Olivier Méhu




SOURCES & CREDITS :

   NOAA